createdAt,value
2022-08-29T00:01:13.145Z,1.40
2022-08-29T00:03:43.122Z,1.02
2022-08-29T00:06:10.747Z,1.27
2022-08-29T00:08:37.685Z,1.00
2022-08-29T00:11:06.744Z,1.45
2022-08-29T00:13:35.160Z,1.17
2022-08-29T00:16:02.270Z,1.75
2022-08-29T00:18:29.518Z,1.60
2022-08-29T00:20:56.608Z,1.10
2022-08-29T00:23:23.567Z,1.00
2022-08-29T00:25:50.597Z,1.02
2022-08-29T00:28:17.711Z,1.77
2022-08-29T00:30:45.282Z,1.23
2022-08-29T00:33:12.291Z,1.10
2022-08-29T00:35:41.619Z,1.10
2022-08-29T00:38:12.922Z,2.17
2022-08-29T00:40:53.418Z,1.13
2022-08-29T00:43:29.862Z,0.95
2022-08-29T00:46:41.440Z,1.52
2022-08-29T00:49:25.253Z,2.03
2022-08-29T00:51:53.847Z,1.35
2022-08-29T00:54:23.541Z,1.08
2022-08-29T00:56:51.974Z,1.30
2022-08-29T00:59:26.021Z,1.15
2022-08-29T01:04:23.844Z,0.88
2022-08-29T01:06:53.244Z,0.85
2022-08-29T01:09:21.079Z,1.17
2022-08-29T01:12:07.725Z,1.23
2022-08-29T01:14:38.412Z,1.25
2022-08-29T01:17:08.738Z,1.30
2022-08-29T01:20:34.863Z,1.63
2022-08-29T01:23:15.531Z,1.58
2022-08-29T01:25:48.755Z,1.23
2022-08-29T01:28:26.621Z,1.20
2022-08-29T01:31:10.542Z,1.13
2022-08-29T01:33:59.561Z,1.15
2022-08-29T01:36:34.838Z,1.30
2022-08-29T01:39:02.079Z,1.77
2022-08-29T01:41:29.089Z,2.15
2022-08-29T01:43:57.324Z,1.33
2022-08-29T01:46:31.561Z,1.33
2022-08-29T01:49:02.870Z,1.17
2022-08-29T01:51:30.363Z,1.52
2022-08-29T01:53:57.310Z,0.80
2022-08-29T01:56:30.326Z,1.48
2022-08-29T01:59:00.108Z,1.00
2022-08-29T02:01:34.410Z,1.67
2022-08-29T02:04:01.647Z,1.10
2022-08-29T02:06:28.722Z,1.00
2022-08-29T02:08:55.871Z,1.27
2022-08-29T02:11:24.363Z,1.27
2022-08-29T02:13:58.636Z,1.52
2022-08-29T02:16:28.570Z,1.00
2022-08-29T02:18:56.686Z,1.63
2022-08-29T02:21:27.363Z,0.98
2022-08-29T02:23:56.618Z,1.30
2022-08-29T02:26:23.699Z,0.90
2022-08-29T02:28:51.831Z,1.05
2022-08-29T02:31:21.708Z,1.23
2022-08-29T02:33:49.701Z,1.13
2022-08-29T02:36:17.113Z,1.10
2022-08-29T02:38:47.026Z,1.10
2022-08-29T02:41:14.489Z,0.85
2022-08-29T02:43:42.470Z,1.08
2022-08-29T02:46:15.964Z,1.13
2022-08-29T02:48:49.318Z,1.15
2022-08-29T02:51:31.792Z,1.15
2022-08-29T02:53:59.682Z,1.02
2022-08-29T02:56:27.777Z,1.38
2022-08-29T02:58:54.684Z,1.08
2022-08-29T03:01:23.557Z,0.90
2022-08-29T03:03:52.551Z,1.30
2022-08-29T03:06:20.179Z,1.20
2022-08-29T03:08:47.408Z,1.10
2022-08-29T03:11:16.099Z,1.05
2022-08-29T03:13:44.638Z,1.35
2022-08-29T03:16:12.318Z,1.20
2022-08-29T03:18:39.758Z,1.15
2022-08-29T03:21:20.335Z,1.50
2022-08-29T03:23:49.544Z,1.55
2022-08-29T03:26:16.600Z,1.40
2022-08-29T03:28:43.986Z,2.30
2022-08-29T03:31:11.514Z,1.40
2022-08-29T03:33:39.124Z,0.80
2022-08-29T03:36:13.893Z,1.10
2022-08-29T03:38:43.595Z,1.30
2022-08-29T03:41:10.858Z,1.20
2022-08-29T03:43:37.942Z,1.70
2022-08-29T03:46:05.101Z,1.20
2022-08-29T03:48:33.677Z,0.98
2022-08-29T03:51:00.855Z,1.13
2022-08-29T03:53:27.996Z,1.23
2022-08-29T03:55:54.982Z,1.20
2022-08-29T03:58:22.175Z,1.33
2022-08-29T04:00:49.398Z,1.23
2022-08-29T04:03:17.032Z,1.92
2022-08-29T04:05:43.969Z,1.23
2022-08-29T04:08:11.059Z,1.45
2022-08-29T04:10:39.772Z,1.33
2022-08-29T04:13:08.787Z,1.50
2022-08-29T04:15:38.648Z,2.08
2022-08-29T04:18:08.334Z,1.50
2022-08-29T04:20:41.878Z,1.60
2022-08-29T04:23:08.973Z,2.80
2022-08-29T04:25:37.761Z,1.67
2022-08-29T04:28:09.773Z,1.88
2022-08-29T04:30:38.289Z,1.80
2022-08-29T04:33:06.189Z,1.60
2022-08-29T04:35:33.238Z,2.25
2022-08-29T04:38:00.183Z,3.40
2022-08-29T04:40:27.150Z,1.80
2022-08-29T04:42:54.161Z,1.70
2022-08-29T04:45:23.088Z,1.60
2022-08-29T04:47:50.065Z,1.75
2022-08-29T04:50:21.132Z,2.03
2022-08-29T04:52:50.223Z,1.88
2022-08-29T04:55:21.654Z,1.75
2022-08-29T04:57:52.203Z,1.98
2022-08-29T05:00:26.274Z,1.30
2022-08-29T05:02:53.243Z,2.45
2022-08-29T05:05:20.465Z,2.10
2022-08-29T05:07:47.502Z,1.73
2022-08-29T05:10:20.354Z,3.35
2022-08-29T05:12:47.762Z,1.38
2022-08-29T05:15:15.864Z,1.95
2022-08-29T05:17:43.983Z,1.63
2022-08-29T05:20:11.971Z,2.38
2022-08-29T05:22:40.006Z,2.33
2022-08-29T05:25:07.902Z,2.28
2022-08-29T05:27:35.292Z,1.98
2022-08-29T05:30:04.238Z,1.80
2022-08-29T05:32:31.267Z,1.85
2022-08-29T05:34:58.886Z,1.58
2022-08-29T05:37:26.052Z,1.90
2022-08-29T05:39:53.059Z,1.60
2022-08-29T05:42:22.260Z,1.70
2022-08-29T05:44:49.977Z,1.73
2022-08-29T05:47:19.125Z,1.83
2022-08-29T05:49:48.388Z,2.10
2022-08-29T05:52:18.519Z,1.77
2022-08-29T05:54:46.600Z,2.42
2022-08-29T05:57:19.414Z,2.25
2022-08-29T05:59:48.807Z,2.20
2022-08-29T06:02:16.721Z,2.40
2022-08-29T06:04:44.169Z,2.50
2022-08-29T06:07:12.490Z,2.70
2022-08-29T06:09:41.474Z,1.75
2022-08-29T06:12:13.586Z,2.35
2022-08-29T06:14:40.845Z,2.17
2022-08-29T06:17:09.319Z,2.17
2022-08-29T06:19:39.778Z,1.85
2022-08-29T06:22:10.190Z,2.17
2022-08-29T06:24:39.219Z,2.95
2022-08-29T06:27:06.665Z,2.65
2022-08-29T06:29:42.918Z,2.85
2022-08-29T06:32:11.714Z,2.70
2022-08-29T06:34:38.715Z,2.30
2022-08-29T06:37:05.644Z,2.08
2022-08-29T06:39:32.537Z,1.90
2022-08-29T06:41:59.630Z,2.60
2022-08-29T06:44:30.620Z,2.65
2022-08-29T06:46:58.081Z,2.33
2022-08-29T06:49:25.887Z,2.92
2022-08-29T06:51:57.617Z,2.10
2022-08-29T06:54:28.136Z,2.38
2022-08-29T06:56:56.586Z,2.00
2022-08-29T06:59:24.135Z,1.98
2022-08-29T07:01:51.326Z,2.55
2022-08-29T07:04:20.951Z,1.90
2022-08-29T07:06:48.912Z,2.22
2022-08-29T07:09:16.122Z,2.50
2022-08-29T07:11:43.618Z,2.13
2022-08-29T07:14:12.122Z,2.40
2022-08-29T07:16:41.196Z,2.72
2022-08-29T07:19:10.137Z,1.75
2022-08-29T07:21:37.684Z,1.70
2022-08-29T07:24:05.152Z,2.05
2022-08-29T07:26:39.023Z,1.65
2022-08-29T07:29:18.613Z,2.45
2022-08-29T07:31:46.144Z,2.67
2022-08-29T07:34:13.565Z,2.60
2022-08-29T07:36:40.547Z,2.92
2022-08-29T07:39:14.241Z,2.40
2022-08-29T07:41:43.894Z,2.63
2022-08-29T07:44:12.470Z,1.83
2022-08-29T07:46:40.895Z,2.50
2022-08-29T07:49:08.008Z,2.30
2022-08-29T07:51:35.918Z,2.65
2022-08-29T07:54:04.528Z,2.30
2022-08-29T07:56:39.066Z,1.92
2022-08-29T07:59:06.976Z,1.88
2022-08-29T08:01:36.289Z,1.85
2022-08-29T08:04:11.843Z,1.77
2022-08-29T08:06:43.378Z,2.17
2022-08-29T08:09:14.698Z,1.58
2022-08-29T08:11:58.641Z,1.85
2022-08-29T08:14:34.812Z,1.83
2022-08-29T08:17:03.569Z,1.60
2022-08-29T08:19:31.146Z,1.98
2022-08-29T08:21:59.371Z,1.60
2022-08-29T08:24:26.293Z,1.20
2022-08-29T08:26:53.345Z,1.52
2022-08-29T08:29:20.325Z,1.67
2022-08-29T08:31:51.589Z,1.73
2022-08-29T08:34:19.636Z,1.50
2022-08-29T08:36:46.791Z,2.78
2022-08-29T08:39:14.628Z,1.52
2022-08-29T08:41:58.186Z,1.50
2022-08-29T08:45:01.346Z,2.03
2022-08-29T08:47:51.056Z,1.38
2022-08-29T08:50:37.074Z,1.60
2022-08-29T08:53:30.904Z,1.25
2022-08-29T08:55:59.921Z,1.52
2022-08-29T08:59:16.222Z,1.20
2022-08-29T09:02:06.630Z,1.70
2022-08-29T09:05:02.111Z,1.55
2022-08-29T09:08:11.181Z,1.20
2022-08-29T09:11:10.074Z,1.92
2022-08-29T09:13:53.725Z,1.23
2022-08-29T09:16:31.507Z,1.55
2022-08-29T09:19:05.124Z,1.80
2022-08-29T09:21:41.407Z,1.25
2022-08-29T09:24:19.404Z,1.35
2022-08-29T09:26:46.291Z,1.45
2022-08-29T09:29:13.976Z,2.53
2022-08-29T09:31:41.302Z,1.08
2022-08-29T09:34:13.157Z,1.52
2022-08-29T09:36:52.527Z,1.20
2022-08-29T09:39:30.090Z,1.67
2022-08-29T09:42:22.974Z,2.30
2022-08-29T09:45:17.044Z,1.30
2022-08-29T09:47:44.402Z,1.38
2022-08-29T09:50:17.527Z,1.23
2022-08-29T09:53:01.557Z,1.40
2022-08-29T09:55:39.086Z,1.92
2022-08-29T09:58:28.257Z,1.88
2022-08-29T10:01:00.919Z,1.48
2022-08-29T10:03:34.390Z,1.92
2022-08-29T10:06:20.954Z,2.33
2022-08-29T10:09:09.144Z,1.35
2022-08-29T10:11:53.073Z,3.05
2022-08-29T10:14:35.510Z,1.63
2022-08-29T10:18:01.040Z,1.98
2022-08-29T10:20:46.076Z,1.67
2022-08-29T10:23:49.395Z,1.42
2022-08-29T10:26:41.135Z,1.40
2022-08-29T10:29:40.085Z,1.17
2022-08-29T10:32:48.638Z,1.25
2022-08-29T10:36:06.545Z,1.35
2022-08-29T10:39:19.810Z,1.23
2022-08-29T10:42:19.464Z,1.35
2022-08-29T10:44:58.283Z,1.30
2022-08-29T10:47:52.216Z,2.10
2022-08-29T10:50:43.677Z,1.50
2022-08-29T10:53:16.975Z,2.33
2022-08-29T10:56:11.067Z,1.60
2022-08-29T10:59:18.576Z,1.75
2022-08-29T11:02:09.025Z,1.48
2022-08-29T11:04:50.713Z,2.13
2022-08-29T11:07:30.785Z,1.48
2022-08-29T11:10:27.477Z,1.30
2022-08-29T11:13:09.545Z,1.80
2022-08-29T11:15:48.557Z,1.42
2022-08-29T11:18:29.976Z,1.13
2022-08-29T11:21:04.035Z,1.48
2022-08-29T11:23:47.925Z,1.58
2022-08-29T11:26:36.577Z,1.30
2022-08-29T11:29:24.780Z,1.45
2022-08-29T11:32:06.409Z,2.08
2022-08-29T11:35:18.141Z,2.08
2022-08-29T11:38:15.091Z,1.80
2022-08-29T11:44:06.408Z,1.10
2022-08-29T11:46:56.957Z,1.40
2022-08-29T11:49:40.552Z,1.50
2022-08-29T11:52:12.863Z,1.70
2022-08-29T11:54:40.027Z,1.52
2022-08-29T11:57:09.651Z,1.63
2022-08-29T11:59:51.611Z,1.35
2022-08-29T12:02:30.314Z,1.45
2022-08-29T12:05:17.622Z,1.75
2022-08-29T12:07:54.890Z,1.65
2022-08-29T12:10:24.576Z,1.60
2022-08-29T12:12:56.577Z,1.58
2022-08-29T12:15:32.460Z,1.92
2022-08-29T12:18:22.320Z,1.52
2022-08-29T12:20:57.851Z,1.48
2022-08-29T12:23:39.918Z,1.05
2022-08-29T12:26:47.061Z,1.60
2022-08-29T12:29:44.456Z,1.55
2022-08-29T12:33:05.943Z,1.60
2022-08-29T12:36:03.675Z,1.23
2022-08-29T12:38:50.086Z,1.15
2022-08-29T12:41:46.825Z,1.17
2022-08-29T12:44:17.695Z,1.67
2022-08-29T12:46:52.979Z,1.35
2022-08-29T12:52:04.530Z,1.30
2022-08-29T12:54:42.026Z,1.55
2022-08-29T12:57:34.988Z,1.63
2022-08-29T13:00:11.483Z,1.55
2022-08-29T13:02:39.141Z,1.30
2022-08-29T13:05:26.856Z,2.25
2022-08-29T13:08:13.059Z,1.13
2022-08-29T13:11:03.794Z,1.38
2022-08-29T13:13:32.040Z,1.35
2022-08-29T13:16:06.655Z,2.03
2022-08-29T13:18:48.834Z,2.40
2022-08-29T13:21:26.306Z,1.48
2022-08-29T13:24:13.636Z,1.42
2022-08-29T13:27:04.195Z,2.65
2022-08-29T13:29:42.521Z,1.30
2022-08-29T13:32:20.250Z,1.75
2022-08-29T13:35:31.515Z,1.75
2022-08-29T13:38:24.387Z,1.27
2022-08-29T13:40:57.882Z,1.50
2022-08-29T13:43:41.401Z,1.65
2022-08-29T13:46:15.931Z,1.63
2022-08-29T13:48:44.092Z,1.05
2022-08-29T13:51:12.379Z,1.67
2022-08-29T13:53:39.462Z,1.38
2022-08-29T13:56:23.678Z,1.00
2022-08-29T13:58:51.380Z,1.02
2022-08-29T14:01:30.352Z,1.30
2022-08-29T14:04:03.532Z,1.55
2022-08-29T14:06:37.721Z,1.00
2022-08-29T14:09:04.810Z,1.75
2022-08-29T14:11:31.777Z,1.27
2022-08-29T14:13:58.936Z,1.35
2022-08-29T14:16:26.259Z,1.23
2022-08-29T14:18:53.786Z,1.10
2022-08-29T14:21:20.752Z,1.15
2022-08-29T14:23:48.530Z,1.38
2022-08-29T14:26:15.441Z,2.13
2022-08-29T14:28:48.007Z,1.10
2022-08-29T14:31:15.596Z,0.90
2022-08-29T14:33:42.552Z,1.52
2022-08-29T14:36:12.189Z,1.02
2022-08-29T14:38:39.070Z,1.90
2022-08-29T14:41:06.042Z,1.23
2022-08-29T14:43:36.449Z,1.10
2022-08-29T14:46:07.076Z,1.02
2022-08-29T14:48:34.564Z,1.27
2022-08-29T14:51:01.896Z,1.25
2022-08-29T14:53:28.803Z,1.15
2022-08-29T14:55:56.638Z,1.48
2022-08-29T14:58:23.573Z,1.92
2022-08-29T15:00:51.505Z,1.17
2022-08-29T15:03:21.490Z,0.82
2022-08-29T15:05:48.654Z,2.08
2022-08-29T15:08:18.474Z,1.13
2022-08-29T15:10:46.207Z,0.90
2022-08-29T15:13:13.270Z,1.30
2022-08-29T15:15:40.418Z,1.05
2022-08-29T15:18:07.522Z,1.20
2022-08-29T15:20:37.489Z,1.00
2022-08-29T15:23:06.055Z,0.82
2022-08-29T15:25:33.031Z,0.90
2022-08-29T15:28:00.050Z,1.05
2022-08-29T15:30:27.461Z,1.60
2022-08-29T15:32:54.465Z,1.20
2022-08-29T15:35:21.671Z,1.20
2022-08-29T15:37:48.840Z,0.68
2022-08-29T15:40:16.099Z,0.90
2022-08-29T15:42:43.842Z,1.10
2022-08-29T15:45:11.782Z,1.15
2022-08-29T15:47:39.601Z,0.95
2022-08-29T15:50:08.207Z,1.38
2022-08-29T15:52:35.840Z,0.73
2022-08-29T15:55:03.886Z,1.20
2022-08-29T15:57:30.896Z,1.25
2022-08-29T15:59:58.832Z,1.20
2022-08-29T16:02:27.973Z,1.20
2022-08-29T16:04:57.202Z,1.17
2022-08-29T16:07:29.140Z,1.38
2022-08-29T16:09:59.632Z,1.00
2022-08-29T16:12:28.377Z,1.13
2022-08-29T16:15:00.136Z,1.40
2022-08-29T16:17:31.009Z,1.45
2022-08-29T16:20:00.323Z,0.82
2022-08-29T16:22:28.492Z,0.77
2022-08-29T16:24:55.880Z,1.05
2022-08-29T16:27:24.406Z,1.30
2022-08-29T16:29:53.130Z,1.05
2022-08-29T16:32:20.877Z,0.82
2022-08-29T16:34:47.782Z,1.45
2022-08-29T16:37:15.094Z,1.13
2022-08-29T16:39:42.221Z,0.77
2022-08-29T16:42:12.051Z,0.82
2022-08-29T16:44:40.651Z,1.58
2022-08-29T16:47:07.757Z,0.90
2022-08-29T16:49:34.935Z,1.17
2022-08-29T16:52:03.616Z,1.00
2022-08-29T16:54:30.811Z,1.27
2022-08-29T16:56:57.714Z,0.95
2022-08-29T16:59:25.206Z,1.42
2022-08-29T17:01:53.849Z,1.00
2022-08-29T17:04:24.765Z,1.10
2022-08-29T17:06:52.424Z,1.60
2022-08-29T17:09:22.764Z,1.00
2022-08-29T17:11:51.223Z,1.15
2022-08-29T17:14:21.847Z,1.08
2022-08-29T17:16:51.968Z,1.33
2022-08-29T17:19:20.410Z,1.20
2022-08-29T17:21:48.077Z,1.10
2022-08-29T17:24:15.396Z,1.10
2022-08-29T17:26:45.241Z,1.00
2022-08-29T17:29:13.200Z,1.48
2022-08-29T17:31:40.498Z,1.30
2022-08-29T17:34:09.282Z,1.70
2022-08-29T17:36:37.675Z,1.27
2022-08-29T17:39:06.733Z,1.10
2022-08-29T17:41:37.147Z,1.35
2022-08-29T17:44:06.811Z,1.35
2022-08-29T17:46:35.324Z,1.50
2022-08-29T17:49:07.378Z,1.40
2022-08-29T17:51:35.473Z,1.90
2022-08-29T17:54:04.324Z,1.30
2022-08-29T17:56:46.013Z,1.20
2022-08-29T17:59:14.986Z,1.17
2022-08-29T18:01:42.300Z,1.73
2022-08-29T18:04:10.052Z,0.98
2022-08-29T18:06:37.394Z,1.45
2022-08-29T18:09:06.523Z,0.93
2022-08-29T18:11:38.326Z,1.90
2022-08-29T18:14:05.539Z,1.85
2022-08-29T18:16:32.696Z,1.77
2022-08-29T18:18:59.695Z,1.98
2022-08-29T18:21:27.085Z,1.80
2022-08-29T18:23:54.043Z,2.30
2022-08-29T18:26:21.435Z,2.05
2022-08-29T18:28:48.381Z,1.80
2022-08-29T18:31:18.606Z,1.77
2022-08-29T18:34:00.186Z,1.80
2022-08-29T18:36:30.658Z,2.20
2022-08-29T18:38:58.070Z,2.88
2022-08-29T18:41:25.413Z,2.00
2022-08-29T18:43:52.336Z,2.28
2022-08-29T18:46:19.660Z,2.25
2022-08-29T18:48:49.386Z,2.13
2022-08-29T18:51:16.854Z,2.88
2022-08-29T18:53:44.771Z,2.47
2022-08-29T18:56:12.307Z,2.28
2022-08-29T18:58:41.280Z,2.65
2022-08-29T19:01:14.834Z,2.30
2022-08-29T19:03:42.120Z,2.42
2022-08-29T19:06:10.378Z,1.67
2022-08-29T19:08:38.580Z,2.53
2022-08-29T19:11:08.085Z,1.88
2022-08-29T19:13:35.900Z,1.95
2022-08-29T19:16:07.270Z,2.70
2022-08-29T19:18:34.470Z,1.67
2022-08-29T19:21:09.926Z,2.17
2022-08-29T19:23:41.080Z,2.10
2022-08-29T19:26:14.260Z,2.20
2022-08-29T19:28:42.454Z,2.25
2022-08-29T19:31:10.053Z,1.80
2022-08-29T19:33:37.709Z,1.70
2022-08-29T19:36:09.384Z,2.47
2022-08-29T19:38:37.425Z,2.03
2022-08-29T19:41:06.068Z,2.33
2022-08-29T19:43:34.814Z,2.15
2022-08-29T19:46:03.435Z,1.80
2022-08-29T19:48:31.171Z,2.38
2022-08-29T19:50:58.625Z,3.10
2022-08-29T19:53:27.740Z,2.53
2022-08-29T19:55:58.568Z,3.13
2022-08-29T19:58:31.862Z,2.33
2022-08-29T20:01:05.025Z,2.58
2022-08-29T20:03:35.096Z,2.47
2022-08-29T20:06:06.959Z,2.58
2022-08-29T20:08:42.664Z,2.65
2022-08-29T20:11:17.385Z,2.67
2022-08-29T20:13:50.540Z,2.83
2022-08-29T20:16:22.843Z,2.80
2022-08-29T20:18:52.114Z,2.50
2022-08-29T20:21:20.210Z,2.50
2022-08-29T20:23:49.675Z,2.60
2022-08-29T20:26:21.944Z,2.53
2022-08-29T20:28:51.927Z,2.75
2022-08-29T20:31:20.780Z,2.50
2022-08-29T20:33:48.850Z,2.13
2022-08-29T20:36:38.799Z,2.75
2022-08-29T20:39:10.887Z,2.35
2022-08-29T20:41:38.259Z,2.85
2022-08-29T20:44:10.950Z,3.42
2022-08-29T20:46:41.185Z,2.28
2022-08-29T20:49:16.999Z,2.85
2022-08-29T20:51:44.603Z,2.13
2022-08-29T20:54:18.595Z,1.92
2022-08-29T20:56:46.086Z,2.35
2022-08-29T20:59:13.469Z,2.42
2022-08-29T21:01:41.627Z,2.08
2022-08-29T21:04:28.508Z,2.38
2022-08-29T21:07:03.394Z,2.97
2022-08-29T21:09:31.026Z,2.50
2022-08-29T21:11:58.594Z,2.13
2022-08-29T21:14:27.568Z,1.90
2022-08-29T21:16:56.909Z,2.10
2022-08-29T21:19:30.087Z,2.05
2022-08-29T21:22:00.075Z,2.00
2022-08-29T21:24:28.844Z,1.63
2022-08-29T21:26:56.998Z,2.25
2022-08-29T21:29:24.229Z,1.95
2022-08-29T21:31:52.319Z,2.15
2022-08-29T21:34:20.246Z,2.58
2022-08-29T21:36:47.305Z,2.25
2022-08-29T21:39:21.577Z,2.38
2022-08-29T21:41:56.792Z,2.53
2022-08-29T21:44:24.202Z,2.40
2022-08-29T21:46:51.218Z,2.10
2022-08-29T21:49:21.585Z,2.05
2022-08-29T21:51:49.580Z,3.13
2022-08-29T21:54:18.137Z,2.22
2022-08-29T21:56:46.300Z,2.00
2022-08-29T21:59:16.971Z,2.60
2022-08-29T22:01:45.597Z,2.88
2022-08-29T22:04:19.346Z,2.63
2022-08-29T22:06:54.962Z,3.28
2022-08-29T22:09:21.886Z,2.28
2022-08-29T22:11:49.589Z,3.83
2022-08-29T22:14:16.491Z,2.28
2022-08-29T22:16:43.601Z,2.30
2022-08-29T22:19:16.894Z,2.22
2022-08-29T22:21:54.426Z,1.92
2022-08-29T22:24:21.735Z,2.40
2022-08-29T22:26:48.740Z,2.55
2022-08-29T22:29:16.272Z,2.00
2022-08-29T22:31:45.585Z,2.63
2022-08-29T22:34:14.867Z,2.13
2022-08-29T22:36:42.395Z,2.33
2022-08-29T22:39:09.441Z,2.22
2022-08-29T22:41:36.917Z,2.30
2022-08-29T22:46:52.906Z,2.65
2022-08-29T22:49:19.943Z,2.47
2022-08-29T22:51:48.186Z,2.17
2022-08-29T22:54:33.720Z,2.08
2022-08-29T22:57:05.275Z,2.30
2022-08-29T22:59:33.753Z,2.47
2022-08-29T23:02:02.723Z,2.42
2022-08-29T23:04:30.177Z,2.33
2022-08-29T23:06:57.504Z,2.78
2022-08-29T23:09:24.855Z,2.35
2022-08-29T23:11:51.786Z,2.13
2022-08-29T23:14:20.616Z,2.45
2022-08-29T23:16:48.378Z,2.65
2022-08-29T23:19:16.008Z,2.58
2022-08-29T23:21:44.020Z,2.40
2022-08-29T23:24:11.299Z,2.63
2022-08-29T23:26:38.481Z,1.90
2022-08-29T23:29:06.114Z,2.50
2022-08-29T23:31:33.291Z,2.70
2022-08-29T23:34:00.351Z,2.10
2022-08-29T23:36:27.262Z,2.47
2022-08-29T23:38:54.387Z,2.88
2022-08-29T23:41:23.444Z,2.38
2022-08-29T23:43:50.970Z,2.00
2022-08-29T23:46:19.932Z,3.85
2022-08-29T23:48:47.119Z,2.58
2022-08-29T23:51:15.587Z,2.40
2022-08-29T23:53:44.583Z,3.00
2022-08-29T23:56:16.224Z,2.10
2022-08-29T23:58:43.260Z,1.92
